createdAt,value
2023-05-11T00:02:00.284Z,11.1
2023-05-11T00:04:48.429Z,11
2023-05-11T00:07:36.340Z,11
2023-05-11T00:10:24.216Z,11
2023-05-11T00:13:12.176Z,11
2023-05-11T00:15:59.903Z,11
2023-05-11T00:18:48.024Z,11
2023-05-11T00:21:35.802Z,10.9
2023-05-11T00:24:23.751Z,10.9
2023-05-11T00:27:11.577Z,10.9
2023-05-11T00:29:59.536Z,10.9
2023-05-11T00:32:47.338Z,10.9
2023-05-11T00:35:35.388Z,10.8
2023-05-11T00:38:23.150Z,10.8
2023-05-11T00:41:11.050Z,10.8
2023-05-11T00:43:58.733Z,10.8
2023-05-11T00:46:46.662Z,10.8
2023-05-11T00:49:34.607Z,10.8
2023-05-11T00:52:22.618Z,10.8
2023-05-11T00:55:10.404Z,10.9
2023-05-11T00:57:58.269Z,10.9
2023-05-11T01:00:46.795Z,10.9
2023-05-11T01:03:35.136Z,10.9
2023-05-11T01:06:22.995Z,11
2023-05-11T01:09:11.010Z,11
2023-05-11T01:11:59.169Z,11
2023-05-11T01:14:46.964Z,11
2023-05-11T01:17:35.129Z,11
2023-05-11T01:20:23.054Z,11
2023-05-11T01:23:10.805Z,11
2023-05-11T01:25:58.785Z,11
2023-05-11T01:28:46.560Z,11
2023-05-11T01:31:34.505Z,11
2023-05-11T01:34:22.314Z,11
2023-05-11T01:37:10.213Z,11
2023-05-11T01:39:58.086Z,11
2023-05-11T01:42:46.964Z,11
2023-05-11T01:45:34.801Z,11
2023-05-11T01:48:22.916Z,10.9
2023-05-11T01:51:10.750Z,11
2023-05-11T01:53:58.717Z,10.9
2023-05-11T01:56:46.517Z,10.9
2023-05-11T01:59:34.539Z,10.9
2023-05-11T02:02:22.714Z,10.9
2023-05-11T02:05:10.789Z,10.9
2023-05-11T02:07:58.511Z,10.9
2023-05-11T02:10:46.614Z,10.9
2023-05-11T02:13:34.360Z,10.8
2023-05-11T02:16:22.444Z,10.8
2023-05-11T02:19:10.656Z,10.8
2023-05-11T02:21:58.749Z,10.8
2023-05-11T02:24:46.658Z,10.8
2023-05-11T02:27:34.566Z,10.8
2023-05-11T02:30:22.448Z,10.8
2023-05-11T02:33:10.648Z,10.8
2023-05-11T02:35:58.662Z,10.8
2023-05-11T02:38:46.660Z,10.8
2023-05-11T02:41:34.588Z,10.8
2023-05-11T02:44:22.420Z,10.8
2023-05-11T02:47:10.324Z,10.8
2023-05-11T02:49:58.373Z,10.8
2023-05-11T02:52:46.149Z,10.8
2023-05-11T02:55:34.013Z,10.8
2023-05-11T02:58:21.913Z,10.8
2023-05-11T03:01:10.287Z,10.8
2023-05-11T03:03:58.568Z,10.8
2023-05-11T03:06:46.812Z,10.8
2023-05-11T03:09:37.496Z,10.8
2023-05-11T03:12:25.278Z,10.8
2023-05-11T03:15:13.104Z,10.8
2023-05-11T03:18:01.017Z,10.8
2023-05-11T03:20:49.079Z,10.8
2023-05-11T03:23:37.022Z,10.8
2023-05-11T03:26:24.962Z,10.8
2023-05-11T03:29:12.791Z,10.8
2023-05-11T03:32:00.556Z,10.8
2023-05-11T03:34:48.482Z,10.7
2023-05-11T03:37:36.181Z,10.7
2023-05-11T03:40:24.158Z,10.7
2023-05-11T03:43:12.168Z,10.7
2023-05-11T03:46:00.121Z,10.7
2023-05-11T03:48:48.045Z,10.7
2023-05-11T03:51:35.792Z,10.7
2023-05-11T03:54:23.507Z,10.7
2023-05-11T03:57:11.487Z,10.7
2023-05-11T03:59:59.328Z,10.6
2023-05-11T04:02:47.585Z,10.6
2023-05-11T04:05:35.526Z,10.6
2023-05-11T04:08:23.291Z,10.6
2023-05-11T04:11:11.130Z,10.6
2023-05-11T04:13:59.032Z,10.6
2023-05-11T04:16:47.060Z,10.7
2023-05-11T04:19:35.126Z,10.7
2023-05-11T04:22:22.971Z,10.7
2023-05-11T04:25:10.805Z,10.7
2023-05-11T04:27:58.642Z,10.7
2023-05-11T04:30:46.820Z,10.7
2023-05-11T04:33:35.024Z,10.7
2023-05-11T04:36:22.788Z,10.8
2023-05-11T04:39:10.606Z,10.8
2023-05-11T04:41:58.338Z,10.8
2023-05-11T04:44:46.117Z,10.9
2023-05-11T04:47:34.184Z,10.9
2023-05-11T04:50:22.236Z,10.9
2023-05-11T04:53:10.075Z,10.9
2023-05-11T04:55:58.009Z,10.9
2023-05-11T04:58:45.842Z,11
2023-05-11T05:01:33.909Z,11
2023-05-11T05:04:22.155Z,11
2023-05-11T05:07:10.168Z,11
2023-05-11T05:09:58.015Z,11
2023-05-11T05:12:46.051Z,11
2023-05-11T05:15:33.846Z,11.1
2023-05-11T05:18:21.972Z,11.1
2023-05-11T05:21:09.927Z,11
2023-05-11T05:23:57.897Z,11.1
2023-05-11T05:26:45.675Z,11.1
2023-05-11T05:29:33.612Z,11.1
2023-05-11T05:32:21.499Z,11.1
2023-05-11T05:35:09.333Z,11.1
2023-05-11T05:37:57.177Z,11.2
2023-05-11T05:40:45.416Z,11.2
2023-05-11T05:43:33.453Z,11.3
2023-05-11T05:46:21.512Z,11.4
2023-05-11T05:49:09.531Z,11.5
2023-05-11T05:51:57.315Z,11.6
2023-05-11T05:54:45.118Z,11.6
2023-05-11T05:57:32.985Z,11.7
2023-05-11T06:00:20.936Z,11.6
2023-05-11T06:03:09.260Z,11.7
2023-05-11T06:05:57.308Z,11.7
2023-05-11T06:08:45.240Z,11.7
2023-05-11T06:11:33.017Z,11.7
2023-05-11T06:14:21.037Z,11.7
2023-05-11T06:17:09.165Z,11.9
2023-05-11T06:19:56.991Z,11.9
2023-05-11T06:22:44.719Z,12.2
2023-05-11T06:25:32.554Z,12.7
2023-05-11T06:28:20.281Z,13
2023-05-11T06:31:08.222Z,12.9
2023-05-11T06:33:56.155Z,12.7
2023-05-11T06:36:43.948Z,12.5
2023-05-11T06:39:31.839Z,12.5
2023-05-11T06:42:19.662Z,12.7
2023-05-11T06:45:07.874Z,12.8
2023-05-11T06:47:56.167Z,13
2023-05-11T06:50:44.191Z,13.6
2023-05-11T06:53:32.130Z,15
2023-05-11T06:56:19.919Z,16.1
2023-05-11T06:59:07.766Z,17.2
2023-05-11T07:01:55.615Z,17.4
2023-05-11T07:04:43.750Z,17.1
2023-05-11T07:07:31.582Z,16.8
2023-05-11T07:10:19.689Z,16.4
2023-05-11T07:13:08.195Z,15.9
2023-05-11T07:15:57.686Z,15.5
2023-05-11T07:18:45.858Z,15.1
2023-05-11T07:21:33.804Z,14.9
2023-05-11T07:24:21.570Z,14.8
2023-05-11T07:27:09.372Z,14.7
2023-05-11T07:29:57.246Z,14.7
2023-05-11T07:32:45.046Z,14.9
2023-05-11T07:35:32.977Z,15.3
2023-05-11T07:38:21.104Z,15.6
2023-05-11T07:41:10.223Z,15.9
2023-05-11T07:44:00.568Z,16.2
2023-05-11T07:46:48.610Z,16.8
2023-05-11T07:49:44.157Z,17.4
2023-05-11T07:52:32.149Z,18
2023-05-11T07:55:20.914Z,18.7
2023-05-11T07:58:09.215Z,20
2023-05-11T08:00:57.124Z,21.1
2023-05-11T08:03:45.036Z,21.9
2023-05-11T08:06:33.075Z,21.7
2023-05-11T08:09:21.039Z,21.4
2023-05-11T08:12:09.002Z,20.3
2023-05-11T08:14:56.785Z,18.9
2023-05-11T08:17:44.732Z,17.8
2023-05-11T08:20:32.717Z,17
2023-05-11T08:23:20.492Z,16.5
2023-05-11T08:26:08.329Z,16.1
2023-05-11T08:28:56.365Z,15.8
2023-05-11T08:31:44.161Z,15.8
2023-05-11T08:34:32.338Z,15.8
2023-05-11T08:37:20.370Z,15.6
2023-05-11T08:40:15.895Z,15.6
2023-05-11T08:43:03.673Z,15.6
2023-05-11T08:45:51.553Z,15.6
2023-05-11T08:48:39.556Z,15.6
2023-05-11T08:51:27.490Z,15.6
2023-05-11T08:54:15.381Z,15.6
2023-05-11T08:57:03.161Z,15.6
2023-05-11T08:59:51.030Z,15.8
2023-05-11T09:02:39.041Z,15.8
2023-05-11T09:05:27.010Z,15.8
2023-05-11T09:08:15.055Z,15.8
2023-05-11T09:11:02.790Z,15.8
2023-05-11T09:13:50.577Z,15.8
2023-05-11T09:16:51.590Z,15.8
2023-05-11T09:19:39.865Z,15.8
2023-05-11T09:22:29.970Z,15.6
2023-05-11T09:25:21.087Z,15.5
2023-05-11T09:28:15.535Z,15.3
2023-05-11T09:31:03.913Z,15.2
2023-05-11T09:33:52.034Z,15.1
2023-05-11T09:36:40.078Z,15.2
2023-05-11T09:39:35.250Z,15.3
2023-05-11T09:42:32.391Z,15.5
2023-05-11T09:45:20.147Z,15.6
2023-05-11T09:48:08.310Z,15.6
2023-05-11T09:50:56.277Z,15.6
2023-05-11T09:53:44.294Z,15.6
2023-05-11T09:56:32.077Z,15.6
2023-05-11T09:59:19.961Z,15.6
2023-05-11T10:02:07.755Z,15.6
2023-05-11T10:04:55.730Z,15.8
2023-05-11T10:07:43.644Z,16
2023-05-11T10:10:31.589Z,16
2023-05-11T10:13:19.389Z,16
2023-05-11T10:16:07.297Z,16.2
2023-05-11T10:18:55.352Z,16.2
2023-05-11T10:21:43.254Z,16.3
2023-05-11T10:24:31.141Z,16.2
2023-05-11T10:27:19.176Z,16.2
2023-05-11T10:30:06.954Z,16.3
2023-05-11T10:32:54.801Z,16.2
2023-05-11T10:35:42.663Z,16.3
2023-05-11T10:38:30.607Z,16.4
2023-05-11T10:41:18.375Z,16.7
2023-05-11T10:44:06.231Z,17
2023-05-11T10:46:55.757Z,17.2
2023-05-11T10:49:43.598Z,17.2
2023-05-11T10:52:31.473Z,17.2
2023-05-11T10:55:19.503Z,17.2
2023-05-11T10:58:07.786Z,17.5
2023-05-11T11:00:55.839Z,17.8
2023-05-11T11:03:43.732Z,18
2023-05-11T11:06:31.532Z,18.2
2023-05-11T11:09:19.258Z,18.4
2023-05-11T11:12:07.132Z,18.7
2023-05-11T11:14:54.947Z,19.1
2023-05-11T11:17:43.004Z,19.3
2023-05-11T11:20:30.842Z,19.6
2023-05-11T11:23:18.526Z,19.8
2023-05-11T11:26:06.361Z,20.1
2023-05-11T11:28:54.359Z,20.3
2023-05-11T11:31:42.930Z,20.3
2023-05-11T11:34:30.977Z,20
2023-05-11T11:37:18.521Z,20
2023-05-11T11:40:14.450Z,20.2
2023-05-11T11:43:03.576Z,20.3
2023-05-11T11:45:51.623Z,20
2023-05-11T11:48:39.716Z,19.8
2023-05-11T11:51:27.625Z,19.5
2023-05-11T11:54:15.355Z,19.1
2023-05-11T11:57:03.096Z,19.1
2023-05-11T11:59:50.820Z,19.1
2023-05-11T12:02:38.757Z,19.1
2023-05-11T12:05:26.954Z,19
2023-05-11T12:08:14.833Z,18.9
2023-05-11T12:11:02.566Z,18.7
2023-05-11T12:13:50.291Z,18.5
2023-05-11T12:16:38.142Z,18.6
2023-05-11T12:19:29.695Z,18.7
2023-05-11T12:22:17.605Z,19
2023-05-11T12:25:05.367Z,19.4
2023-05-11T12:27:53.201Z,19.7
2023-05-11T12:30:40.984Z,19.9
2023-05-11T12:33:28.672Z,19.7
2023-05-11T12:36:16.658Z,19.6
2023-05-11T12:39:04.517Z,19.6
2023-05-11T12:41:52.317Z,19.7
2023-05-11T12:44:40.057Z,20
2023-05-11T12:47:27.757Z,20.5
2023-05-11T12:50:15.625Z,21
2023-05-11T12:53:03.508Z,21
2023-05-11T12:55:51.262Z,21.3
2023-05-11T12:58:39.126Z,21.6
2023-05-11T13:01:26.967Z,21.7
2023-05-11T13:04:15.099Z,21.8
2023-05-11T13:07:02.741Z,21.9
2023-05-11T13:09:50.579Z,22.1
2023-05-11T13:12:38.386Z,22
2023-05-11T13:15:26.146Z,21.8
2023-05-11T13:18:16.353Z,21.7
2023-05-11T13:21:04.411Z,21.4
2023-05-11T13:23:52.046Z,21.1
2023-05-11T13:26:39.926Z,21.1
2023-05-11T13:29:38.408Z,21.1
2023-05-11T13:32:26.253Z,21
2023-05-11T13:35:13.854Z,20.9
2023-05-11T13:38:01.709Z,20.9
2023-05-11T13:40:49.456Z,21
2023-05-11T13:43:37.286Z,21.2
2023-05-11T13:46:25.234Z,21.3
2023-05-11T13:49:12.997Z,21.3
2023-05-11T13:52:00.790Z,21.1
2023-05-11T13:54:48.504Z,21.1
2023-05-11T13:57:36.332Z,21
2023-05-11T14:00:24.241Z,21
2023-05-11T14:03:12.314Z,21.1
2023-05-11T14:06:00.418Z,20.8
2023-05-11T14:08:48.145Z,20.5
2023-05-11T14:11:37.370Z,20.3
2023-05-11T14:14:27.458Z,20.3
2023-05-11T14:17:15.360Z,20.5
2023-05-11T14:20:03.404Z,20.5
2023-05-11T14:22:51.372Z,20.5
2023-05-11T14:25:39.201Z,20.3
2023-05-11T14:28:26.931Z,20
2023-05-11T14:31:14.768Z,19.7
2023-05-11T14:34:02.554Z,19.4
2023-05-11T14:36:50.404Z,19.1
2023-05-11T14:39:38.272Z,18.8
2023-05-11T14:42:26.060Z,18.7
2023-05-11T14:45:13.980Z,18.5
2023-05-11T14:48:02.119Z,18.3
2023-05-11T14:50:50.430Z,18.2
2023-05-11T14:53:38.343Z,18.2
2023-05-11T14:56:26.506Z,18.3
2023-05-11T14:59:14.392Z,18.4
2023-05-11T15:02:02.294Z,18.4
2023-05-11T15:04:50.288Z,18.3
2023-05-11T15:07:38.147Z,18.3
2023-05-11T15:10:26.005Z,18.3
2023-05-11T15:13:13.926Z,18.3
2023-05-11T15:16:01.673Z,18.2
2023-05-11T15:18:49.769Z,18.1
2023-05-11T15:21:37.832Z,18.1
2023-05-11T15:24:25.724Z,18
2023-05-11T15:27:13.611Z,18
2023-05-11T15:30:01.595Z,17.9
2023-05-11T15:32:49.328Z,17.8
2023-05-11T15:35:37.268Z,17.8
2023-05-11T15:38:25.464Z,17.6
2023-05-11T15:41:13.292Z,17.5
2023-05-11T15:44:01.157Z,17.1
2023-05-11T15:46:49.117Z,16.9
2023-05-11T15:49:36.946Z,16.6
2023-05-11T15:52:24.675Z,16.4
2023-05-11T15:55:12.472Z,16.1
2023-05-11T15:58:00.243Z,15.9
2023-05-11T16:00:48.452Z,15.6
2023-05-11T16:03:36.451Z,15.3
2023-05-11T16:06:24.261Z,15
2023-05-11T16:09:12.241Z,14.8
2023-05-11T16:12:00.070Z,14.7
2023-05-11T16:14:47.911Z,14.5
2023-05-11T16:17:35.804Z,14.4
2023-05-11T16:20:23.682Z,14.2
2023-05-11T16:23:11.386Z,14.2
2023-05-11T16:25:59.253Z,14.1
2023-05-11T16:28:46.980Z,14.1
2023-05-11T16:31:34.754Z,14.1
2023-05-11T16:34:22.778Z,14.1
2023-05-11T16:37:10.638Z,14.2
2023-05-11T16:39:58.461Z,14.2
2023-05-11T16:42:47.996Z,14.2
2023-05-11T16:45:35.784Z,14.2
2023-05-11T16:48:23.620Z,14.2
2023-05-11T16:51:11.390Z,14.2
2023-05-11T16:53:59.351Z,14.3
2023-05-11T16:56:46.986Z,14.3
2023-05-11T16:59:34.752Z,14.3
2023-05-11T17:02:22.500Z,14.3
2023-05-11T17:05:10.418Z,14.3
2023-05-11T17:07:58.290Z,14.4
2023-05-11T17:10:46.754Z,14.4
2023-05-11T17:13:34.432Z,14.4
2023-05-11T17:16:22.440Z,14.4
2023-05-11T17:19:10.511Z,14.4
2023-05-11T17:21:58.410Z,14.4
2023-05-11T17:24:46.357Z,14.3
2023-05-11T17:27:34.199Z,14.3
2023-05-11T17:30:22.382Z,14.3
2023-05-11T17:33:28.034Z,14.2
2023-05-11T17:36:16.101Z,14.1
2023-05-11T17:39:03.950Z,14
2023-05-11T17:41:51.742Z,13.9
2023-05-11T17:44:39.561Z,13.9
2023-05-11T17:47:27.258Z,13.8
2023-05-11T17:50:15.098Z,13.7
2023-05-11T17:53:02.922Z,13.6
2023-05-11T17:55:50.702Z,13.5
2023-05-11T17:58:38.612Z,13.3
2023-05-11T18:01:26.531Z,13.2
2023-05-11T18:04:14.716Z,13.1
2023-05-11T18:07:02.641Z,12.9
2023-05-11T18:09:50.479Z,12.8
2023-05-11T18:12:38.260Z,12.6
2023-05-11T18:15:26.172Z,12.5
2023-05-11T18:18:14.143Z,12.5
2023-05-11T18:21:02.025Z,12.4
2023-05-11T18:23:49.860Z,12.4
2023-05-11T18:26:37.486Z,12.4
2023-05-11T18:29:25.229Z,12.5
2023-05-11T18:32:12.979Z,12.5
2023-05-11T18:35:00.787Z,12.5
2023-05-11T18:37:48.526Z,12.5
2023-05-11T18:40:36.261Z,12.5
2023-05-11T18:43:23.931Z,12.5
2023-05-11T18:46:11.734Z,12.5
2023-05-11T18:48:59.535Z,12.5
2023-05-11T18:51:47.413Z,12.5
2023-05-11T18:54:35.166Z,12.5
2023-05-11T18:57:22.952Z,12.5
2023-05-11T19:00:10.813Z,12.5
2023-05-11T19:02:58.664Z,12.5
2023-05-11T19:05:46.679Z,12.5
2023-05-11T19:08:34.665Z,12.5
2023-05-11T19:11:22.577Z,12.5
2023-05-11T19:14:10.826Z,12.5
2023-05-11T19:16:58.779Z,12.5
2023-05-11T19:19:46.857Z,12.5
2023-05-11T19:22:37.316Z,12.5
2023-05-11T19:25:25.187Z,12.5
2023-05-11T19:28:13.047Z,12.5
2023-05-11T19:31:00.848Z,12.5
2023-05-11T19:33:48.693Z,12.5
2023-05-11T19:36:36.636Z,12.5
2023-05-11T19:39:24.563Z,12.5
2023-05-11T19:42:12.445Z,12.5
2023-05-11T19:45:00.224Z,12.5
2023-05-11T19:47:48.061Z,12.5
2023-05-11T19:50:35.836Z,12.5
2023-05-11T19:53:23.681Z,12.5
2023-05-11T19:56:11.391Z,12.5
2023-05-11T19:58:59.196Z,12.5
2023-05-11T20:01:47.036Z,12.5
2023-05-11T20:04:35.377Z,12.5
2023-05-11T20:07:23.102Z,12.4
2023-05-11T20:10:10.971Z,12.4
2023-05-11T20:12:58.797Z,12.4
2023-05-11T20:15:46.588Z,12.4
2023-05-11T20:18:34.530Z,12.3
2023-05-11T20:21:22.597Z,12.3
2023-05-11T20:24:10.296Z,12.3
2023-05-11T20:26:58.180Z,12.3
2023-05-11T20:29:45.804Z,12.3
2023-05-11T20:32:33.643Z,12.3
2023-05-11T20:35:21.533Z,12.3
2023-05-11T20:38:09.296Z,12.3
2023-05-11T20:40:57.066Z,12.3
2023-05-11T20:43:44.839Z,12.3
2023-05-11T20:46:33.127Z,12.3
2023-05-11T20:49:31.192Z,12.3
2023-05-11T20:52:27.051Z,12.3
2023-05-11T20:55:14.749Z,12.3
2023-05-11T20:58:02.456Z,12.3
2023-05-11T21:00:50.642Z,12.3
2023-05-11T21:03:38.863Z,12.3
2023-05-11T21:06:26.629Z,12.3
2023-05-11T21:09:14.307Z,12.3
2023-05-11T21:12:01.937Z,12.3
2023-05-11T21:14:49.671Z,12.3
2023-05-11T21:17:37.266Z,12.3
2023-05-11T21:20:25.258Z,12.3
2023-05-11T21:23:13.123Z,12.3
2023-05-11T21:26:00.807Z,12.3
2023-05-11T21:28:48.482Z,12.3
2023-05-11T21:31:36.425Z,12.3
2023-05-11T21:34:24.118Z,12.3
2023-05-11T21:37:12.168Z,12.3
2023-05-11T21:39:59.926Z,12.3
2023-05-11T21:42:47.655Z,12.3
2023-05-11T21:45:35.371Z,12.4
2023-05-11T21:48:23.227Z,12.4
2023-05-11T21:51:10.955Z,12.4
2023-05-11T21:53:58.761Z,12.4
2023-05-11T21:56:46.575Z,12.4
2023-05-11T21:59:34.446Z,12.4
2023-05-11T22:02:22.237Z,12.4
2023-05-11T22:05:09.996Z,12.4
2023-05-11T22:08:03.354Z,12.4
2023-05-11T22:11:02.946Z,12.4
2023-05-11T22:13:51.051Z,12.4
2023-05-11T22:16:39.163Z,12.4
2023-05-11T22:19:26.863Z,12.3
2023-05-11T22:22:14.548Z,12.3
2023-05-11T22:25:02.235Z,12.3
2023-05-11T22:27:50.032Z,12.3
2023-05-11T22:30:37.834Z,12.3
2023-05-11T22:33:25.780Z,12.3
2023-05-11T22:36:13.460Z,12.2
2023-05-11T22:39:01.279Z,12.2
2023-05-11T22:41:48.979Z,12.2
2023-05-11T22:44:36.848Z,12.2
2023-05-11T22:47:24.757Z,12.2
2023-05-11T22:50:12.596Z,12.2
2023-05-11T22:53:00.459Z,12.1
2023-05-11T22:55:48.097Z,12.1
2023-05-11T22:58:35.998Z,12.1
2023-05-11T23:01:23.958Z,12.1
2023-05-11T23:04:11.750Z,12.1
2023-05-11T23:06:59.570Z,12.1
2023-05-11T23:09:47.269Z,12.1
2023-05-11T23:12:35.130Z,12.1
2023-05-11T23:15:23.040Z,12.1
2023-05-11T23:18:10.971Z,12
2023-05-11T23:20:58.814Z,12
2023-05-11T23:23:46.556Z,12
2023-05-11T23:26:34.220Z,12
2023-05-11T23:29:21.937Z,12
2023-05-11T23:32:09.942Z,12
2023-05-11T23:34:57.908Z,12
2023-05-11T23:37:45.674Z,12
2023-05-11T23:40:33.442Z,12
2023-05-11T23:43:21.048Z,12
2023-05-11T23:46:08.756Z,12
2023-05-11T23:48:56.386Z,12
2023-05-11T23:51:44.128Z,12
2023-05-11T23:54:31.905Z,12
2023-05-11T23:57:19.693Z,12
